Peotone Weather
Station Historical Data
Daily Summary for February 14, 2018 Units:  English    Metric   Both
« Previous Day
Next Day »
Daily Weekly Monthly Yearly Custom
  High: Low: Average:
Temperature: 42.0 °F 20.9 °F 33.7 °F
Dew Point: 39.4 °F 19.2 °F 31.8 °F
Humidity: 97% 83% 93%
Wind Speed: 10.3mph 0.0mph 4.3mph
Wind Gust: 12.6mph - -
Wind- - SSE
Pressure: 30.30 in 29.88 in -
Precipitation: 0.01 in    
Historical Graphs
 
 
Tabular Data for February 14, 2018
Time Temperature Dew Point Pressure Wind Wind Speed Wind Gust Humidity Rainfall Rate (Hourly) solar Conditions
00:00 28.0 °F 25.7 °F 30.30 in South 5.8 mph 9.2 mph 91% 0.00 in 0.00 W/m2
00:04 28.2 °F 26.2 °F 30.29 in SSW 8.1 mph 9.2 mph 92% 0.00 in 0.00 W/m2
00:05 28.3 °F 26.3 °F 30.29 in South 3.5 mph 9.2 mph 92% 0.00 in 0.00 W/m2
00:09 28.5 °F 26.5 °F 30.29 in South 4.6 mph 11.5 mph 92% 0.00 in 0.00 W/m2
00:14 28.6 °F 26.3 °F 30.30 in South 3.4 mph 6.9 mph 91% 0.00 in 0.00 W/m2
00:15 28.6 °F 26.3 °F 30.30 in South 5.8 mph 6.9 mph 91% 0.00 in 0.00 W/m2
00:19 28.8 °F 26.5 °F 30.29 in South 5.8 mph 9.2 mph 91% 0.00 in 0.00 W/m2
00:24 29.0 °F 26.7 °F 30.29 in South 5.8 mph 9.2 mph 91% 0.00 in 0.00 W/m2
00:29 29.2 °F 26.9 °F 30.29 in SSW 8.1 mph 12.6 mph 91% 0.00 in 0.00 W/m2
00:34 29.2 °F 26.9 °F 30.29 in SW 8.1 mph 10.3 mph 91% 0.00 in 0.00 W/m2
00:35 29.2 °F 26.9 °F 30.29 in South 4.6 mph 10.4 mph 91% 0.00 in 0.00 W/m2
00:40 29.2 °F 26.9 °F 30.29 in South 5.8 mph 11.5 mph 91% 0.00 in 0.00 W/m2
00:45 29.3 °F 27.0 °F 30.29 in South 4.6 mph 9.2 mph 91% 0.00 in 0.00 W/m2
00:50 29.2 °F 26.9 °F 30.29 in South 9.2 mph 9.2 mph 91% 0.00 in 0.00 W/m2
00:55 29.1 °F 26.8 °F 30.29 in South 6.9 mph 9.2 mph 91% 0.00 in 0.00 W/m2
01:00 29.0 °F 26.7 °F 30.28 in South 4.6 mph 11.5 mph 91% 0.00 in 0.00 W/m2
01:05 28.8 °F 26.5 °F 30.28 in SSW 3.4 mph 8.1 mph 91% 0.00 in 0.00 W/m2
01:10 28.7 °F 26.4 °F 30.28 in South 4.6 mph 6.9 mph 91% 0.00 in 0.00 W/m2
01:15 28.6 °F 26.3 °F 30.28 in South 9.2 mph 9.2 mph 91% 0.00 in 0.00 W/m2
01:20 28.7 °F 26.4 °F 30.28 in South 6.9 mph 9.2 mph 91% 0.00 in 0.00 W/m2
01:25 28.6 °F 26.3 °F 30.28 in South 4.6 mph 9.2 mph 91% 0.00 in 0.00 W/m2
01:30 28.6 °F 26.3 °F 30.27 in South 4.6 mph 8.1 mph 91% 0.00 in 0.00 W/m2
01:35 28.6 °F 26.6 °F 30.27 in SSW 3.4 mph 8.1 mph 92% 0.00 in 0.00 W/m2
01:40 28.5 °F 26.5 °F 30.27 in South 4.6 mph 8.1 mph 92% 0.00 in 0.00 W/m2
01:45 28.6 °F 26.6 °F 30.27 in South 2.3 mph 6.9 mph 92% 0.00 in 0.00 W/m2
01:50 28.6 °F 26.6 °F 30.27 in South 5.8 mph 8.1 mph 92% 0.00 in 0.00 W/m2
01:55 28.6 °F 26.6 °F 30.27 in South 3.4 mph 8.1 mph 92% 0.00 in 0.00 W/m2
02:00 28.6 °F 26.6 °F 30.27 in South 3.4 mph 6.9 mph 92% 0.00 in 0.00 W/m2
02:05 28.5 °F 26.5 °F 30.27 in South 4.6 mph 4.6 mph 92% 0.00 in 0.00 W/m2
02:10 28.3 °F 26.3 °F 30.27 in South 4.6 mph 4.6 mph 92% 0.00 in 0.00 W/m2
02:15 28.2 °F 26.2 °F 30.27 in South 3.4 mph 3.4 mph 92% 0.00 in 0.00 W/m2
02:20 28.1 °F 26.1 °F 30.26 in South 4.6 mph 5.8 mph 92% 0.00 in 0.00 W/m2
02:25 28.0 °F 26.0 °F 30.26 in SSE 3.5 mph 6.9 mph 92% 0.00 in 0.00 W/m2
02:26 28.0 °F 26.0 °F 30.26 in South 4.6 mph 5.8 mph 92% 0.00 in 0.00 W/m2
02:30 28.0 °F 26.0 °F 30.26 in South 5.8 mph 8.1 mph 92% 0.00 in 0.00 W/m2
02:31 28.0 °F 26.0 °F 30.26 in South 4.6 mph 6.9 mph 92% 0.00 in 0.00 W/m2
02:36 28.0 °F 26.0 °F 30.26 in SSE 5.8 mph 8.1 mph 92% 0.00 in 0.00 W/m2
02:41 27.8 °F 25.8 °F 30.26 in South 3.4 mph 4.6 mph 92% 0.00 in 0.00 W/m2
02:45 27.7 °F 25.7 °F 30.26 in South 4.6 mph 6.9 mph 92% 0.00 in 0.00 W/m2
02:46 27.7 °F 25.7 °F 30.26 in South 4.6 mph 4.6 mph 92% 0.00 in 0.00 W/m2
02:50 27.7 °F 25.7 °F 30.26 in South 5.8 mph 6.9 mph 92% 0.00 in 0.00 W/m2
02:51 27.6 °F 25.6 °F 30.26 in South 3.4 mph 5.8 mph 92% 0.00 in 0.00 W/m2
02:55 27.6 °F 25.8 °F 30.25 in South 2.3 mph 5.8 mph 93% 0.00 in 0.00 W/m2
02:56 27.6 °F 25.8 °F 30.25 in South 2.3 mph 6.9 mph 93% 0.00 in 0.00 W/m2
03:01 27.5 °F 25.8 °F 30.25 in South 2.3 mph 3.4 mph 93% 0.00 in 0.00 W/m2
03:06 27.5 °F 25.8 °F 30.25 in South 3.4 mph 4.6 mph 93% 0.00 in 0.00 W/m2
03:11 27.4 °F 25.6 °F 30.25 in South 2.3 mph 5.8 mph 93% 0.00 in 0.00 W/m2
03:16 26.9 °F 24.9 °F 30.25 in South 1.1 mph 3.4 mph 92% 0.00 in 0.00 W/m2
03:22 26.3 °F 24.3 °F 30.24 in SSE 1.1 mph 3.4 mph 92% 0.00 in 0.00 W/m2
03:27 26.1 °F 24.4 °F 30.24 in SSE 4.6 mph 4.6 mph 93% 0.00 in 0.00 W/m2
03:32 26.1 °F 24.4 °F 30.24 in SSE 4.6 mph 5.8 mph 93% 0.00 in 0.00 W/m2
03:37 26.3 °F 24.6 °F 30.23 in SSE 4.6 mph 5.8 mph 93% 0.00 in 0.00 W/m2
03:42 26.3 °F 24.6 °F 30.23 in SSE 6.9 mph 6.9 mph 93% 0.00 in 0.00 W/m2
03:47 26.5 °F 24.8 °F 30.23 in SSE 4.6 mph 5.8 mph 93% 0.00 in 0.00 W/m2
03:52 26.6 °F 24.9 °F 30.23 in SSE 2.3 mph 6.9 mph 93% 0.00 in 0.00 W/m2
03:57 26.5 °F 24.8 °F 30.23 in SSE 2.3 mph 5.8 mph 93% 0.00 in 0.00 W/m2
04:02 26.2 °F 24.5 °F 30.23 in SSE 2.3 mph 4.6 mph 93% 0.00 in 0.00 W/m2
04:07 26.2 °F 24.5 °F 30.23 in SSE 4.6 mph 5.8 mph 93% 0.00 in 0.00 W/m2
04:12 26.2 °F 24.5 °F 30.23 in SSE 4.6 mph 4.6 mph 93% 0.00 in 0.00 W/m2
04:17 26.0 °F 24.3 °F 30.23 in SSE 2.3 mph 4.6 mph 93% 0.00 in 0.00 W/m2
04:22 25.6 °F 23.9 °F 30.22 in Calm     93% 0.00 in 0.00 W/m2
04:28 25.2 °F 23.5 °F 30.22 in Calm     93% 0.00 in 0.00 W/m2
04:33 24.7 °F 23.0 °F 30.22 in Calm     93% 0.00 in 0.00 W/m2
04:38 24.2 °F 22.5 °F 30.22 in SSE 2.3 mph 2.3 mph 93% 0.00 in 0.00 W/m2
04:43 23.9 °F 22.2 °F 30.21 in SSE 2.3 mph 3.4 mph 93% 0.00 in 0.00 W/m2
04:48 23.8 °F 22.1 °F 30.22 in SSE 2.3 mph 3.4 mph 93% 0.00 in 0.00 W/m2
04:53 23.5 °F 21.8 °F 30.22 in Calm   2.3 mph 93% 0.00 in 0.00 W/m2
04:58 22.9 °F 21.2 °F 30.22 in Calm     93% 0.00 in 0.00 W/m2
05:03 22.5 °F 20.5 °F 30.22 in SSE 1.1 mph 3.4 mph 92% 0.00 in 0.00 W/m2
05:08 22.2 °F 20.5 °F 30.22 in SSE 4.6 mph 4.6 mph 93% 0.00 in 0.00 W/m2
05:14 22.0 °F 20.3 °F 30.22 in SSE 2.3 mph 5.8 mph 93% 0.00 in 0.00 W/m2
05:19 21.9 °F 20.2 °F 30.22 in SE 3.4 mph 4.6 mph 93% 0.00 in 0.00 W/m2
05:24 21.7 °F 20.0 °F 30.21 in SE 3.4 mph 4.6 mph 93% 0.00 in 0.00 W/m2
05:29 21.6 °F 19.9 °F 30.21 in SE 2.3 mph 5.8 mph 93% 0.00 in 0.00 W/m2
05:34 21.6 °F 19.9 °F 30.21 in SE 3.4 mph 5.8 mph 93% 0.00 in 0.00 W/m2
05:44 21.3 °F 19.6 °F 30.21 in SE 2.3 mph 3.4 mph 93% 0.00 in 0.00 W/m2
05:49 21.2 °F 19.5 °F 30.21 in SE 2.3 mph 4.6 mph 93% 0.00 in 0.00 W/m2
05:54 21.1 °F 19.4 °F 30.21 in SE 2.3 mph 3.4 mph 93% 0.00 in 0.00 W/m2
05:59 21.0 °F 19.3 °F 30.21 in SE 4.6 mph 4.6 mph 93% 0.00 in 0.00 W/m2
06:05 20.9 °F 19.2 °F 30.20 in SE 3.4 mph 5.8 mph 93% 0.00 in 0.00 W/m2
06:10 20.9 °F 19.2 °F 30.20 in SE 3.4 mph 4.6 mph 93% 0.00 in 0.00 W/m2
06:15 21.1 °F 19.4 °F 30.20 in SSE 2.3 mph 5.8 mph 93% 0.00 in 0.00 W/m2
06:20 21.3 °F 19.6 °F 30.20 in SSE 4.6 mph 6.9 mph 93% 0.00 in 0.00 W/m2
06:25 21.6 °F 19.9 °F 30.20 in SSE 4.6 mph 6.9 mph 93% 0.00 in 0.00 W/m2
06:30 21.8 °F 20.1 °F 30.20 in SSE 3.4 mph 6.9 mph 93% 0.00 in 0.00 W/m2
06:35 22.1 °F 20.6 °F 30.20 in SSE 4.6 mph 5.8 mph 94% 0.00 in 0.00 W/m2
06:40 22.5 °F 20.8 °F 30.21 in SSE 3.4 mph 9.2 mph 93% 0.00 in 0.00 W/m2
06:45 22.9 °F 21.4 °F 30.21 in SSE 2.3 mph 3.4 mph 94% 0.00 in 0.00 W/m2
06:50 23.2 °F 21.7 °F 30.21 in SSE 4.6 mph 6.9 mph 94% 0.00 in 5.00 W/m2
06:56 23.5 °F 22.0 °F 30.21 in SSE 3.4 mph 3.4 mph 94% 0.00 in 11.00 W/m2
07:01 23.6 °F 22.1 °F 30.21 in South 3.4 mph 8.1 mph 94% 0.00 in 12.00 W/m2
07:06 23.8 °F 22.3 °F 30.20 in SSE 4.6 mph 6.9 mph 94% 0.00 in 18.00 W/m2
07:11 23.9 °F 22.4 °F 30.20 in SSE 2.3 mph 4.6 mph 94% 0.00 in 23.00 W/m2
07:16 24.1 °F 22.6 °F 30.20 in SSE 3.4 mph 4.6 mph 94% 0.00 in 26.00 W/m2
07:21 24.2 °F 22.7 °F 30.20 in SSE 3.4 mph 5.8 mph 94% 0.00 in 23.00 W/m2
07:26 24.4 °F 22.9 °F 30.20 in SSE 4.6 mph 5.8 mph 94% 0.00 in 28.00 W/m2
07:31 24.5 °F 23.0 °F 30.20 in SE 3.4 mph 4.6 mph 94% 0.00 in 28.00 W/m2
07:36 24.7 °F 23.2 °F 30.20 in SE 4.6 mph 5.8 mph 94% 0.00 in 32.00 W/m2
07:41 24.9 °F 23.4 °F 30.20 in SSE 3.4 mph 5.8 mph 94% 0.00 in 35.00 W/m2
07:46 25.1 °F 23.6 °F 30.20 in SSE 3.4 mph 5.8 mph 94% 0.00 in 35.00 W/m2
07:51 25.2 °F 23.7 °F 30.19 in SSE 5.8 mph 6.9 mph 94% 0.00 in 44.00 W/m2
07:57 25.5 °F 24.0 °F 30.19 in SSE 4.6 mph 5.8 mph 94% 0.00 in 62.00 W/m2
08:02 25.9 °F 24.4 °F 30.19 in SSE 3.4 mph 6.9 mph 94% 0.00 in 77.00 W/m2
08:07 26.3 °F 24.8 °F 30.19 in SSE 5.8 mph 5.8 mph 94% 0.00 in 90.00 W/m2
08:12 26.6 °F 25.1 °F 30.19 in SSE 4.6 mph 4.6 mph 94% 0.00 in 100.00 W/m2
08:17 27.0 °F 25.8 °F 30.19 in SSE 5.8 mph 8.1 mph 95% 0.00 in 123.00 W/m2
08:22 27.4 °F 26.2 °F 30.18 in SSE 4.6 mph 6.9 mph 95% 0.00 in 134.00 W/m2
08:27 28.4 °F 27.1 °F 30.18 in SSE 2.3 mph 5.8 mph 95% 0.00 in 146.00 W/m2
08:32 28.9 °F 27.6 °F 30.18 in South 4.6 mph 8.1 mph 95% 0.00 in 181.00 W/m2
08:37 29.2 °F 28.0 °F 30.18 in SSE 3.4 mph 9.2 mph 95% 0.00 in 260.00 W/m2
08:43 29.7 °F 28.2 °F 30.18 in SSE 5.8 mph 9.2 mph 94% 0.00 in 190.00 W/m2
08:48 29.9 °F 28.4 °F 30.18 in SSE 8.1 mph 9.2 mph 94% 0.00 in 290.00 W/m2
08:53 30.4 °F 28.9 °F 30.18 in SSE 6.9 mph 9.2 mph 94% 0.00 in 313.00 W/m2
08:58 30.8 °F 29.0 °F 30.18 in SSE 4.6 mph 9.2 mph 93% 0.00 in 339.00 W/m2
09:03 31.3 °F 29.5 °F 30.18 in SSE 10.3 mph 10.3 mph 93% 0.00 in 316.00 W/m2
09:08 31.6 °F 29.5 °F 30.18 in South 8.1 mph 8.1 mph 92% 0.00 in 113.00 W/m2
09:13 32.0 °F 29.9 °F 30.18 in SSE 5.8 mph 10.3 mph 92% 0.00 in 141.00 W/m2
09:18 32.5 °F 30.2 °F 30.18 in SSE 4.6 mph 11.5 mph 91% 0.00 in 102.00 W/m2
09:23 32.7 °F 30.4 °F 30.18 in SSE 4.6 mph 9.2 mph 91% 0.00 in 102.00 W/m2
09:28 33.1 °F 30.5 °F 30.18 in SSE 6.9 mph 11.5 mph 90% 0.00 in 123.00 W/m2
09:33 33.6 °F 31.0 °F 30.18 in SSE 6.9 mph 10.3 mph 90% 0.00 in 111.00 W/m2
09:39 33.9 °F 31.0 °F 30.18 in SSE 4.6 mph 6.9 mph 89% 0.00 in 121.00 W/m2
09:44 34.3 °F 31.4 °F 30.17 in SSE 6.9 mph 9.2 mph 89% 0.00 in 118.00 W/m2
09:49 34.6 °F 31.7 °F 30.17 in South 3.4 mph 9.2 mph 89% 0.00 in 111.00 W/m2
09:54 35.0 °F 31.8 °F 30.17 in SSE 5.8 mph 8.1 mph 88% 0.00 in 118.00 W/m2
09:59 35.6 °F 32.4 °F 30.17 in South 6.9 mph 9.2 mph 88% 0.00 in 118.00 W/m2
10:04 36.0 °F 32.8 °F 30.16 in South 4.6 mph 10.3 mph 88% 0.00 in 139.00 W/m2
10:09 36.7 °F 33.5 °F 30.16 in SSE 5.8 mph 8.1 mph 88% 0.00 in 134.00 W/m2
10:14 37.5 °F 34.0 °F 30.16 in South 3.4 mph 6.9 mph 87% 0.00 in 169.00 W/m2
10:19 38.4 °F 34.6 °F 30.16 in South 3.4 mph 9.2 mph 86% 0.00 in 206.00 W/m2
10:24 38.8 °F 35.0 °F 30.15 in SSE 5.8 mph 9.2 mph 86% 0.00 in 241.00 W/m2
10:30 39.4 °F 35.6 °F 30.15 in South 4.6 mph 11.5 mph 86% 0.00 in 287.00 W/m2
10:35 39.6 °F 35.5 °F 30.15 in SSE 4.6 mph 9.2 mph 85% 0.00 in 234.00 W/m2
10:40 39.7 °F 35.9 °F 30.14 in South 8.1 mph 11.5 mph 86% 0.00 in 181.00 W/m2
10:45 39.8 °F 35.7 °F 30.14 in SSE 4.6 mph 10.3 mph 85% 0.00 in 241.00 W/m2
10:50 40.0 °F 35.9 °F 30.14 in SSE 3.4 mph 8.1 mph 85% 0.00 in 271.00 W/m2
10:55 39.7 °F 35.6 °F 30.14 in South 3.4 mph 9.2 mph 85% 0.00 in 244.00 W/m2
11:00 39.9 °F 36.1 °F 30.14 in SSE 8.1 mph 9.2 mph 86% 0.00 in 353.00 W/m2
11:05 40.3 °F 36.2 °F 30.14 in South 9.2 mph 11.5 mph 85% 0.00 in 330.00 W/m2
11:10 40.1 °F 36.3 °F 30.14 in WSW 5.8 mph 10.3 mph 86% 0.00 in 369.00 W/m2
11:15 40.6 °F 36.8 °F 30.13 in SSW 6.9 mph 8.1 mph 86% 0.00 in 605.00 W/m2
11:20 41.0 °F 36.8 °F 30.13 in SSW 1.1 mph 1.1 mph 85% 0.00 in 645.00 W/m2
11:25 41.3 °F 37.1 °F 30.12 in SSW 5.8 mph 6.9 mph 85% 0.00 in 548.00 W/m2
11:30 41.5 °F 37.0 °F 30.12 in SSW 8.1 mph 9.2 mph 84% 0.00 in 628.00 W/m2
11:36 41.8 °F 37.3 °F 30.12 in SW 9.2 mph 10.3 mph 84% 0.00 in 577.00 W/m2
11:41 42.0 °F 37.2 °F 30.11 in South 4.6 mph 8.1 mph 83% 0.00 in 462.00 W/m2
11:46 41.9 °F 37.4 °F 30.11 in SSE 4.6 mph 5.8 mph 84% 0.00 in 332.00 W/m2
11:51 42.0 °F 37.5 °F 30.11 in SSE 3.4 mph 6.9 mph 84% 0.00 in 381.00 W/m2
11:56 41.8 °F 37.3 °F 30.10 in SSE 3.4 mph 4.6 mph 84% 0.00 in 406.00 W/m2
12:01 41.3 °F 37.1 °F 30.10 in South 9.2 mph 9.2 mph 85% 0.00 in 316.00 W/m2
12:06 40.9 °F 36.8 °F 30.11 in South 4.6 mph 6.9 mph 85% 0.00 in 260.00 W/m2
12:11 40.7 °F 36.8 °F 30.10 in SSE 3.4 mph 5.8 mph 86% 0.00 in 290.00 W/m2
12:16 40.9 °F 37.3 °F 30.10 in South 5.8 mph 5.8 mph 87% 0.00 in 364.00 W/m2
12:21 40.9 °F 37.3 °F 30.09 in SSW 5.8 mph 8.1 mph 87% 0.00 in 313.00 W/m2
12:27 41.0 °F 37.4 °F 30.09 in SSE 3.4 mph 9.2 mph 87% 0.00 in 343.00 W/m2
12:32 41.1 °F 37.2 °F 30.09 in SSW 5.8 mph 9.2 mph 86% 0.00 in 352.00 W/m2
12:37 40.8 °F 37.2 °F 30.09 in SSW 8.1 mph 9.2 mph 87% 0.00 in 403.00 W/m2
12:42 40.9 °F 37.3 °F 30.08 in SSW 6.9 mph 8.1 mph 87% 0.00 in 388.00 W/m2
12:47 40.8 °F 37.2 °F 30.08 in SSE 3.4 mph 6.9 mph 87% 0.00 in 297.00 W/m2
12:52 40.9 °F 37.3 °F 30.08 in South 5.8 mph 9.2 mph 87% 0.00 in 306.00 W/m2
12:57 40.6 °F 37.0 °F 30.08 in SE 3.4 mph 6.9 mph 87% 0.00 in 330.00 W/m2
13:02 40.5 °F 37.2 °F 30.07 in South 5.8 mph 10.3 mph 88% 0.00 in 265.00 W/m2
13:07 40.5 °F 37.2 °F 30.06 in Calm   8.1 mph 88% 0.00 in 193.00 W/m2
13:12 40.1 °F 36.8 °F 30.06 in SSE 5.8 mph 10.3 mph 88% 0.00 in 155.00 W/m2
13:17 39.8 °F 36.8 °F 30.06 in South 4.6 mph 10.3 mph 89% 0.00 in 158.00 W/m2
13:23 39.6 °F 36.6 °F 30.06 in SSE 5.8 mph 8.1 mph 89% 0.00 in 111.00 W/m2
13:28 39.4 °F 36.7 °F 30.05 in SSE 6.9 mph 10.3 mph 90% 0.00 in 121.00 W/m2
13:33 39.3 °F 36.6 °F 30.05 in SSE 5.8 mph 6.9 mph 90% 0.00 in 123.00 W/m2
13:38 39.2 °F 36.5 °F 30.05 in SSE 3.4 mph 8.1 mph 90% 0.00 in 116.00 W/m2
13:43 39.1 °F 36.7 °F 30.05 in SSE 5.8 mph 8.1 mph 91% 0.00 in 116.00 W/m2
13:48 39.0 °F 36.6 °F 30.04 in SSE 5.8 mph 10.3 mph 91% 0.00 in 130.00 W/m2
13:53 38.8 °F 36.4 °F 30.04 in SSE 4.6 mph 10.3 mph 91% 0.00 in 141.00 W/m2
13:58 38.8 °F 36.7 °F 30.04 in South 2.3 mph 9.2 mph 92% 0.00 in 142.00 W/m2
14:03 38.8 °F 36.7 °F 30.03 in South 2.3 mph 8.1 mph 92% 0.00 in 142.00 W/m2
14:08 38.7 °F 36.6 °F 30.03 in SSE 8.1 mph 8.1 mph 92% 0.00 in 116.00 W/m2
14:13 38.6 °F 36.5 °F 30.02 in South 4.6 mph 10.3 mph 92% 0.00 in 100.00 W/m2
14:18 38.5 °F 36.7 °F 30.02 in SSE 9.2 mph 10.3 mph 93% 0.00 in 97.00 W/m2
14:24 38.4 °F 36.6 °F 30.02 in South 4.6 mph 10.3 mph 93% 0.00 in 95.00 W/m2
14:29 38.4 °F 36.6 °F 30.01 in South 10.3 mph 10.3 mph 93% 0.00 in 93.00 W/m2
14:34 38.4 °F 36.8 °F 30.01 in SSE 2.3 mph 9.2 mph 94% 0.00 in 98.00 W/m2
14:39 38.4 °F 36.8 °F 30.01 in SSE 4.6 mph 11.5 mph 94% 0.00 in 111.00 W/m2
14:44 38.4 °F 36.8 °F 30.00 in SSE 6.9 mph 9.2 mph 94% 0.00 in 135.00 W/m2
14:49 38.6 °F 37.0 °F 30.01 in South 5.8 mph 10.3 mph 94% 0.00 in 127.00 W/m2
14:54 38.8 °F 37.2 °F 30.01 in South 4.6 mph 12.6 mph 94% 0.00 in 120.00 W/m2
14:59 38.7 °F 37.1 °F 30.00 in South 6.9 mph 10.3 mph 94% 0.00 in 128.00 W/m2
15:04 38.7 °F 37.1 °F 30.00 in SSE 4.6 mph 9.2 mph 94% 0.00 in 146.00 W/m2
15:09 38.6 °F 37.0 °F 30.00 in SSE 4.6 mph 8.1 mph 94% 0.00 in 127.00 W/m2
15:14 38.4 °F 36.8 °F 30.00 in SE 5.8 mph 6.9 mph 94% 0.00 in 121.00 W/m2
15:19 38.4 °F 36.8 °F 29.99 in SSE 5.8 mph 6.9 mph 94% 0.00 in 109.00 W/m2
15:24 38.4 °F 36.6 °F 29.99 in SE 4.6 mph 6.9 mph 93% 0.00 in 102.00 W/m2
15:29 38.4 °F 36.8 °F 29.99 in SSE 5.8 mph 9.2 mph 94% 0.00 in 104.00 W/m2
15:34 38.6 °F 37.0 °F 29.99 in SSE 3.4 mph 8.1 mph 94% 0.00 in 98.00 W/m2
15:40 38.6 °F 37.0 °F 29.99 in SSE 8.1 mph 8.1 mph 94% 0.00 in 83.00 W/m2
15:45 38.5 °F 36.9 °F 29.99 in SSE 5.8 mph 9.2 mph 94% 0.00 in 69.00 W/m2
15:50 38.4 °F 36.8 °F 29.99 in South 4.6 mph 8.1 mph 94% 0.00 in 65.00 W/m2
15:55 38.4 °F 36.8 °F 29.99 in SSE 4.6 mph 8.1 mph 94% 0.00 in 63.00 W/m2
16:00 38.3 °F 36.7 °F 29.99 in SSE 3.4 mph 9.2 mph 94% 0.00 in 51.00 W/m2
16:05 38.1 °F 36.5 °F 29.98 in SSE 3.4 mph 8.1 mph 94% 0.00 in 49.00 W/m2
16:10 38.2 °F 36.6 °F 29.98 in SSE 8.1 mph 8.1 mph 94% 0.00 in 47.00 W/m2
16:15 37.9 °F 36.3 °F 29.98 in SE 3.4 mph 9.2 mph 94% 0.00 in 42.00 W/m2
16:20 37.9 °F 36.6 °F 29.98 in SSE 3.4 mph 5.8 mph 95% 0.00 in 33.00 W/m2
16:25 37.8 °F 36.5 °F 29.98 in SSE 2.3 mph 8.1 mph 95% 0.00 in 33.00 W/m2
16:30 37.6 °F 36.3 °F 29.98 in SSE 3.4 mph 4.6 mph 95% 0.00 in 26.00 W/m2
16:35 37.5 °F 36.2 °F 29.97 in SE 2.3 mph 2.3 mph 95% 0.00 in 23.00 W/m2
16:41 37.5 °F 36.2 °F 29.97 in SSE 2.3 mph 4.6 mph 95% 0.00 in 16.00 W/m2
16:45 37.5 °F 36.2 °F 29.97 in SSE 4.6 mph 4.6 mph 95% 0.00 in 12.00 W/m2
16:50 37.3 °F 36.0 °F 29.97 in SE 1.1 mph 3.4 mph 95% 0.00 in 12.00 W/m2
16:56 37.0 °F 35.7 °F 29.96 in SE 2.3 mph 3.4 mph 95% 0.00 in 11.00 W/m2
17:01 37.1 °F 35.8 °F 29.96 in SE 3.4 mph 4.6 mph 95% 0.00 in 7.00 W/m2
17:06 37.0 °F 35.7 °F 29.96 in SE 4.6 mph 4.6 mph 95% 0.00 in 7.00 W/m2
17:11 37.0 °F 35.7 °F 29.96 in SE 1.1 mph 3.4 mph 95% 0.00 in 0.00 W/m2
17:16 37.1 °F 35.8 °F 29.96 in SE 4.6 mph 5.8 mph 95% 0.00 in 0.00 W/m2
17:21 37.1 °F 36.1 °F 29.95 in SSE 9.2 mph 9.2 mph 96% 0.00 in 0.00 W/m2
17:26 36.9 °F 35.6 °F 29.95 in SSE 8.1 mph 8.1 mph 95% 0.00 in 0.00 W/m2
17:31 37.5 °F 36.5 °F 29.94 in SSE 2.3 mph 11.5 mph 96% 0.00 in 0.00 W/m2
17:36 38.0 °F 37.0 °F 29.94 in SSE 4.6 mph 9.2 mph 96% 0.00 in 0.00 W/m2
17:41 38.3 °F 37.3 °F 29.94 in SSE 4.6 mph 8.1 mph 96% 0.00 in 0.00 W/m2
17:46 38.0 °F 37.0 °F 29.94 in SSE 8.1 mph 9.2 mph 96% 0.00 in 0.00 W/m2
17:52 38.2 °F 37.2 °F 29.94 in SE 9.2 mph 9.2 mph 96% 0.00 in 0.00 W/m2
17:57 38.2 °F 37.2 °F 29.94 in SSE 3.4 mph 9.2 mph 96% 0.00 in 0.00 W/m2
18:02 38.2 °F 37.2 °F 29.94 in SSE 8.1 mph 9.2 mph 96% 0.00 in 0.00 W/m2
18:07 38.0 °F 37.0 °F 29.94 in SSE 5.8 mph 10.3 mph 96% 0.00 in 0.00 W/m2
18:12 38.2 °F 37.2 °F 29.94 in South 3.4 mph 10.3 mph 96% 0.00 in 0.00 W/m2
18:17 38.3 °F 37.3 °F 29.94 in SSE 4.6 mph 12.6 mph 96% 0.00 in 0.00 W/m2
18:22 38.0 °F 37.0 °F 29.94 in South 9.2 mph 11.5 mph 96% 0.00 in 0.00 W/m2
18:27 37.8 °F 36.8 °F 29.93 in South 8.1 mph 10.3 mph 96% 0.00 in 0.00 W/m2
18:32 37.9 °F 36.9 °F 29.94 in SE 3.4 mph 10.3 mph 96% 0.00 in 0.00 W/m2
18:37 38.1 °F 37.1 °F 29.93 in SE 5.8 mph 12.6 mph 96% 0.00 in 0.00 W/m2
18:42 38.2 °F 37.2 °F 29.94 in South 8.1 mph 10.3 mph 96% 0.00 in 0.00 W/m2
18:47 38.0 °F 37.0 °F 29.93 in SSE 5.8 mph 8.1 mph 96% 0.00 in 0.00 W/m2
18:52 37.9 °F 36.9 °F 29.93 in SSE 5.8 mph 10.3 mph 96% 0.00 in 0.00 W/m2
18:57 38.3 °F 37.3 °F 29.93 in SSE 4.6 mph 8.1 mph 96% 0.00 in 0.00 W/m2
19:03 38.3 °F 37.3 °F 29.94 in SW 6.9 mph 8.1 mph 96% 0.00 in 0.00 W/m2
19:08 38.1 °F 37.1 °F 29.93 in South 5.8 mph 9.2 mph 96% 0.00 in 0.00 W/m2
19:13 38.0 °F 37.0 °F 29.93 in SE 3.4 mph 8.1 mph 96% 0.00 in 0.00 W/m2
19:18 38.2 °F 37.2 °F 29.93 in SSE 1.1 mph 5.8 mph 96% 0.00 in 0.00 W/m2
19:23 38.2 °F 37.2 °F 29.93 in SSE 5.8 mph 5.8 mph 96% 0.00 in 0.00 W/m2
19:28 37.8 °F 36.8 °F 29.93 in SSE 3.4 mph 4.6 mph 96% 0.00 in 0.00 W/m2
19:33 37.7 °F 36.7 °F 29.92 in Calm   3.4 mph 96% 0.00 in 0.00 W/m2
19:38 37.8 °F 36.8 °F 29.92 in South 2.3 mph 3.4 mph 96% 0.00 in 0.00 W/m2
19:43 37.8 °F 36.8 °F 29.92 in Calm   3.4 mph 96% 0.00 in 0.00 W/m2
19:48 37.9 °F 36.9 °F 29.92 in South 2.3 mph 3.4 mph 96% 0.00 in 0.00 W/m2
19:54 38.0 °F 37.0 °F 29.92 in South 2.3 mph 4.6 mph 96% 0.00 in 0.00 W/m2
19:59 38.6 °F 37.6 °F 29.92 in South 2.3 mph 5.8 mph 96% 0.00 in 0.00 W/m2
20:04 38.8 °F 37.8 °F 29.92 in South 5.8 mph 5.8 mph 96% 0.00 in 0.00 W/m2
20:09 39.0 °F 38.2 °F 29.92 in South 3.4 mph 5.8 mph 97% 0.00 in 0.00 W/m2
20:13 39.1 °F 38.3 °F 29.92 in South 3.4 mph 6.9 mph 97% 0.00 in 0.00 W/m2
20:18 39.1 °F 38.3 °F 29.91 in South 2.3 mph 5.8 mph 97% 0.00 in 0.00 W/m2
20:23 39.1 °F 38.3 °F 29.91 in South 2.3 mph 4.6 mph 97% 0.00 in 0.00 W/m2
20:28 39.1 °F 38.3 °F 29.91 in South 2.3 mph 3.4 mph 97% 0.00 in 0.00 W/m2
20:33 39.0 °F 38.2 °F 29.91 in South 1.1 mph 5.8 mph 97% 0.00 in 0.00 W/m2
20:38 39.0 °F 38.2 °F 29.90 in South 2.3 mph 4.6 mph 97% 0.00 in 0.00 W/m2
20:43 38.9 °F 38.1 °F 29.90 in SSE 2.3 mph 4.6 mph 97% 0.00 in 0.00 W/m2
20:48 38.8 °F 38.0 °F 29.90 in SSE 1.1 mph 3.4 mph 97% 0.00 in 0.00 W/m2
20:53 38.8 °F 38.0 °F 29.90 in SSE 3.4 mph 3.4 mph 97% 0.00 in 0.00 W/m2
20:58 38.7 °F 37.9 °F 29.90 in SSE 3.4 mph 3.4 mph 97% 0.00 in 0.00 W/m2
21:03 38.7 °F 37.9 °F 29.90 in SSE 1.1 mph 3.4 mph 97% 0.00 in 0.00 W/m2
21:08 38.2 °F 37.4 °F 29.90 in SSE 2.3 mph 3.4 mph 97% 0.00 in 0.00 W/m2
21:13 37.9 °F 37.1 °F 29.90 in Calm   2.3 mph 97% 0.00 in 0.00 W/m2
21:18 37.7 °F 36.9 °F 29.89 in Calm     97% 0.00 in 0.00 W/m2
21:24 37.8 °F 37.0 °F 29.89 in SSE 3.4 mph 3.4 mph 97% 0.00 in 0.00 W/m2
21:29 37.8 °F 37.0 °F 29.89 in SSE 1.1 mph 5.8 mph 97% 0.00 in 0.00 W/m2
21:34 37.6 °F 36.8 °F 29.89 in SSE 3.4 mph 4.6 mph 97% 0.00 in 0.00 W/m2
21:39 37.8 °F 37.0 °F 29.89 in South 5.8 mph 5.8 mph 97% 0.00 in 0.00 W/m2
21:44 38.4 °F 37.6 °F 29.89 in South 4.6 mph 6.9 mph 97% 0.00 in 0.00 W/m2
21:49 39.3 °F 38.5 °F 29.89 in South 2.3 mph 4.6 mph 97% 0.00 in 0.00 W/m2
21:54 39.5 °F 38.7 °F 29.89 in South 2.3 mph 6.9 mph 97% 0.00 in 0.00 W/m2
21:59 39.5 °F 38.7 °F 29.89 in South 3.4 mph 5.8 mph 97% 0.00 in 0.00 W/m2
22:04 39.2 °F 38.4 °F 29.89 in SSE 2.3 mph 4.6 mph 97% 0.00 in 0.00 W/m2
22:10 39.3 °F 38.5 °F 29.89 in SSE 2.3 mph 4.6 mph 97% 0.00 in 0.00 W/m2
22:15 39.5 °F 38.7 °F 29.89 in SSE 1.1 mph 5.8 mph 97% 0.00 in 0.00 W/m2
22:20 39.3 °F 38.5 °F 29.89 in SSE 3.4 mph 4.6 mph 97% 0.00 in 0.00 W/m2
22:25 39.1 °F 38.3 °F 29.88 in SSE 3.4 mph 4.6 mph 97% 0.00 in 0.00 W/m2
22:30 38.8 °F 38.0 °F 29.88 in SSE 3.4 mph 5.8 mph 97% 0.00 in 0.00 W/m2
22:35 38.5 °F 37.7 °F 29.88 in SE 3.4 mph 4.6 mph 97% 0.00 in 0.00 W/m2
22:40 38.1 °F 37.3 °F 29.88 in SSE 2.3 mph 4.6 mph 97% 0.00 in 0.00 W/m2
22:45 38.2 °F 37.4 °F 29.88 in SSE 3.4 mph 5.8 mph 97% 0.00 in 0.00 W/m2
22:50 38.5 °F 37.7 °F 29.88 in SSE 1.1 mph 4.6 mph 97% 0.00 in 0.00 W/m2
22:55 39.1 °F 38.3 °F 29.88 in Calm   6.9 mph 97% 0.00 in 0.00 W/m2
23:00 39.5 °F 38.7 °F 29.88 in South 4.6 mph 5.8 mph 97% 0.00 in 0.00 W/m2
23:05 39.7 °F 38.9 °F 29.88 in SSE 4.6 mph 5.8 mph 97% 0.00 in 0.00 W/m2
23:10 39.7 °F 38.9 °F 29.88 in South 4.6 mph 5.8 mph 97% 0.00 in 0.00 W/m2
23:15 39.7 °F 38.9 °F 29.88 in SSE 4.6 mph 5.8 mph 97% 0.00 in 0.00 W/m2
23:20 39.5 °F 38.7 °F 29.88 in SSE 3.4 mph 4.6 mph 97% 0.01 in 0.00 W/m2
23:25 39.5 °F 38.7 °F 29.88 in SSE 2.3 mph 2.3 mph 97% 0.01 in 0.00 W/m2
23:31 39.4 °F 38.6 °F 29.88 in SSE 2.3 mph 2.3 mph 97% 0.01 in 0.00 W/m2
23:36 39.4 °F 38.6 °F 29.88 in South 4.6 mph 5.8 mph 97% 0.01 in 0.00 W/m2
23:41 39.4 °F 38.6 °F 29.89 in South 2.3 mph 3.4 mph 97% 0.01 in 0.00 W/m2
23:46 39.6 °F 38.8 °F 29.88 in South 2.3 mph 5.8 mph 97% 0.01 in 0.00 W/m2
23:51 39.9 °F 39.1 °F 29.89 in SSW 5.8 mph 6.9 mph 97% 0.01 in 0.00 W/m2
23:56 40.2 °F 39.4 °F 29.89 in South 4.6 mph 6.9 mph 97% 0.01 in 0.00 W/m2
peotoneweather.com
Compliments of Weather Underground - 3.5 mb